createdAt,value
2022-12-13T00:04:19.261Z,98364.78
2022-12-13T00:09:22.648Z,98374.13
2022-12-13T00:14:25.203Z,98363.91
2022-12-13T00:19:27.855Z,98367.34
2022-12-13T00:24:30.435Z,98363.06
2022-12-13T00:29:33.585Z,98377.53
2022-12-13T00:34:36.119Z,98370.69
2022-12-13T00:39:39.191Z,98380.94
2022-12-13T00:44:41.751Z,98365.63
2022-12-13T00:49:45.398Z,98371.56
2022-12-13T00:54:48.190Z,98368.16
2022-12-13T00:59:50.907Z,98360.47
2022-12-13T01:04:53.372Z,98375.84
2022-12-13T01:09:58.137Z,98368.19
2022-12-13T01:15:01.199Z,98348.59
2022-12-13T01:20:06.342Z,98354.53
2022-12-13T01:25:09.082Z,98356.25
2022-12-13T01:30:12.123Z,98367.34
2022-12-13T01:35:14.988Z,98369.03
2022-12-13T01:40:17.719Z,98356.25
2022-12-13T01:45:24.614Z,98373.31
2022-12-13T01:50:34.034Z,98375.00
2022-12-13T01:55:41.667Z,98374.97
2022-12-13T02:00:45.793Z,98377.53
2022-12-13T02:06:03.480Z,98368.19
2022-12-13T02:11:07.517Z,98376.69
2022-12-13T02:16:26.745Z,98371.59
2022-12-13T02:21:49.938Z,98369.88
2022-12-13T02:27:00.921Z,98363.94
2022-12-13T02:32:16.689Z,98371.59
2022-12-13T02:37:44.334Z,98357.94
2022-12-13T02:43:24.639Z,98358.81
2022-12-13T02:48:40.623Z,98378.41
2022-12-13T02:53:43.726Z,98372.44
2022-12-13T02:58:51.826Z,98376.69
2022-12-13T03:04:01.196Z,98378.44
2022-12-13T03:09:09.520Z,98380.97
2022-12-13T03:14:14.384Z,98377.56
2022-12-13T03:19:16.954Z,98381.81
2022-12-13T03:24:21.474Z,98358.81
2022-12-13T03:29:24.938Z,98388.63
2022-12-13T03:34:43.282Z,98384.38
2022-12-13T03:39:46.548Z,98379.28
2022-12-13T03:44:49.250Z,98393.75
2022-12-13T03:49:54.317Z,98379.25
2022-12-13T03:54:57.202Z,98384.38
2022-12-13T03:59:59.812Z,98384.38
2022-12-13T04:05:02.385Z,98373.28
2022-12-13T04:10:25.992Z,98381.81
2022-12-13T04:15:28.985Z,98399.72
2022-12-13T04:20:31.676Z,98388.66
2022-12-13T04:25:34.544Z,98356.25
2022-12-13T04:30:38.129Z,98392.06
2022-12-13T04:35:40.771Z,98398.03
2022-12-13T04:40:43.454Z,98393.75
2022-12-13T04:45:46.085Z,98391.22
2022-12-13T04:50:48.684Z,98386.94
2022-12-13T04:55:51.311Z,98400.59
2022-12-13T05:00:53.854Z,98411.63
2022-12-13T05:05:57.028Z,98412.47
2022-12-13T05:11:01.747Z,98416.75
2022-12-13T05:16:06.889Z,98414.22
2022-12-13T05:21:11.910Z,98357.13
2022-12-13T05:26:14.464Z,98388.63
2022-12-13T05:31:23.504Z,98419.31
2022-12-13T05:36:26.999Z,98427.00
2022-12-13T05:41:34.447Z,98419.31
2022-12-13T05:46:41.497Z,98424.44
2022-12-13T05:51:44.306Z,98424.44
2022-12-13T05:56:46.848Z,98418.47
2022-12-13T06:01:49.536Z,98426.13
2022-12-13T06:06:52.604Z,98426.13
2022-12-13T06:12:00.939Z,98421.00
2022-12-13T06:17:04.547Z,98405.69
2022-12-13T06:22:07.169Z,98426.97
2022-12-13T06:27:09.883Z,98405.69
2022-12-13T06:32:12.893Z,98410.81
2022-12-13T06:37:15.467Z,98430.38
2022-12-13T06:42:21.737Z,98443.22
2022-12-13T06:47:31.438Z,98428.72
2022-12-13T06:52:35.147Z,98473.91
2022-12-13T06:57:37.774Z,98481.53
2022-12-13T07:02:43.550Z,98447.44
2022-12-13T07:07:46.173Z,98483.25
2022-12-13T07:12:49.301Z,98488.38
2022-12-13T07:17:52.388Z,98496.06
2022-12-13T07:22:58.730Z,98505.44
2022-12-13T07:28:05.640Z,98518.22
2022-12-13T07:33:08.508Z,98518.22
2022-12-13T07:38:11.958Z,98525.91
2022-12-13T07:43:15.964Z,98519.94
2022-12-13T07:48:19.595Z,98528.47
2022-12-13T07:53:22.489Z,98522.50
2022-12-13T07:58:25.027Z,98538.69
2022-12-13T08:03:28.693Z,98550.59
2022-12-13T08:08:32.095Z,98546.38
2022-12-13T08:13:35.256Z,98553.19
2022-12-13T08:18:39.681Z,98555.75
2022-12-13T08:23:42.817Z,98554.94
2022-12-13T08:28:45.344Z,98564.31
2022-12-13T08:33:48.779Z,98580.50
2022-12-13T08:38:54.715Z,98566.88
2022-12-13T08:43:57.229Z,98542.97
2022-12-13T08:48:59.902Z,98572.00
2022-12-13T08:54:10.807Z,98595.88
2022-12-13T08:59:16.028Z,98601.00
2022-12-13T09:04:19.329Z,98612.91
2022-12-13T09:09:34.402Z,98624.84
2022-12-13T09:14:45.329Z,98616.31
2022-12-13T09:19:49.026Z,98623.13
2022-12-13T09:24:51.903Z,98615.47
2022-12-13T09:29:54.574Z,98626.56
2022-12-13T09:34:57.263Z,98621.44
2022-12-13T09:40:00.214Z,98623.94
2022-12-13T09:45:31.638Z,98644.41
2022-12-13T09:50:37.448Z,98620.56
2022-12-13T09:55:49.126Z,98654.66
2022-12-13T10:00:53.377Z,98649.50
2022-12-13T10:06:23.350Z,98659.69
2022-12-13T10:11:31.879Z,98668.94
2022-12-13T10:16:36.261Z,98673.94
2022-12-13T10:21:42.958Z,98659.34
2022-12-13T10:26:45.446Z,98653.19
2022-12-13T10:31:50.731Z,98670.09
2022-12-13T10:36:53.661Z,98698.47
2022-12-13T10:42:04.642Z,98700.97
2022-12-13T10:47:18.104Z,98693.28
2022-12-13T10:52:32.167Z,98695.91
2022-12-13T10:57:34.924Z,98698.63
2022-12-13T11:02:41.729Z,98700.22
2022-12-13T11:07:44.732Z,98703.38
2022-12-13T11:12:48.108Z,98725.72
2022-12-13T11:18:02.676Z,98717.31
2022-12-13T11:23:19.664Z,98724.84
2022-12-13T11:28:34.411Z,98738.34
2022-12-13T11:33:48.037Z,98738.72
2022-12-13T11:39:14.291Z,98748.97
2022-12-13T11:44:26.162Z,98733.59
2022-12-13T11:49:42.618Z,98759.09
2022-12-13T11:54:59.208Z,98766.63
2022-12-13T12:00:33.882Z,98765.09
2022-12-13T12:05:43.088Z,98779.66
2022-12-13T12:10:50.049Z,98784.72
2022-12-13T12:16:20.856Z,98792.19
2022-12-13T12:22:12.892Z,98784.75
2022-12-13T12:27:09.309Z,98774.66
2022-12-13T12:32:26.987Z,98777.88
2022-12-13T12:38:10.646Z,98771.03
2022-12-13T12:43:25.888Z,98775.16
2022-12-13T12:49:02.124Z,98769.34
2022-12-13T12:54:33.096Z,98771.09
2022-12-13T13:00:12.187Z,98775.28
2022-12-13T13:05:15.150Z,98781.31
2022-12-13T13:10:26.084Z,98769.94
2022-12-13T13:15:32.545Z,98758.91
2022-12-13T13:20:35.793Z,98769.91
2022-12-13T13:26:00.215Z,98776.38
2022-12-13T13:31:08.906Z,98768.88
2022-12-13T13:36:44.754Z,98772.97
2022-12-13T13:42:21.095Z,98775.47
2022-12-13T13:47:23.827Z,98789.16
2022-12-13T13:52:51.192Z,98777.56
2022-12-13T13:58:09.308Z,98814.81
2022-12-13T14:03:49.893Z,98814.75
2022-12-13T14:09:10.539Z,98812.41
2022-12-13T14:14:31.324Z,98810.44
2022-12-13T14:20:02.445Z,98795.16
2022-12-13T14:25:40.344Z,98784.94
2022-12-13T14:30:47.717Z,98792.72
2022-12-13T14:36:04.372Z,98755.84
2022-12-13T14:41:08.934Z,98796.00
2022-12-13T14:46:14.861Z,98767.22
2022-12-13T14:51:26.151Z,98764.00
2022-12-13T14:56:29.329Z,98751.16
2022-12-13T15:01:37.755Z,98746.88
2022-12-13T15:06:40.711Z,98747.53
2022-12-13T15:11:52.947Z,98770.69
2022-12-13T15:16:56.957Z,98786.72
2022-12-13T15:22:13.239Z,98777.53
2022-12-13T15:27:20.947Z,98786.84
2022-12-13T15:32:23.623Z,98786.34
2022-12-13T15:37:33.163Z,98791.44
2022-12-13T15:42:38.587Z,98778.63
2022-12-13T15:47:45.838Z,98806.09
2022-12-13T15:53:01.633Z,98799.00
2022-12-13T15:58:35.220Z,98802.47
2022-12-13T16:03:44.728Z,98802.75
2022-12-13T16:08:51.574Z,98799.09
2022-12-13T16:13:58.353Z,98796.31
2022-12-13T16:19:01.464Z,98782.41
2022-12-13T16:24:04.168Z,98790.75
2022-12-13T16:29:11.764Z,98785.38
2022-12-13T16:34:18.201Z,98770.25
2022-12-13T16:39:20.891Z,98771.78
2022-12-13T16:44:36.089Z,98768.34
2022-12-13T16:49:38.659Z,98751.19
2022-12-13T16:54:42.877Z,98752.13
2022-12-13T16:59:45.968Z,98754.75
2022-12-13T17:04:48.624Z,98735.97
2022-12-13T17:09:51.246Z,98742.00
2022-12-13T17:14:54.433Z,98735.22
2022-12-13T17:19:57.120Z,98717.50
2022-12-13T17:24:59.749Z,98729.44
2022-12-13T17:30:02.521Z,98687.53
2022-12-13T17:35:06.364Z,98712.00
2022-12-13T17:40:11.068Z,98714.59
2022-12-13T17:45:13.687Z,98692.94
2022-12-13T17:50:16.411Z,98663.00
2022-12-13T17:55:19.029Z,98671.94
2022-12-13T18:00:21.593Z,98675.69
2022-12-13T18:05:27.624Z,98669.28
2022-12-13T18:10:31.283Z,98662.41
2022-12-13T18:15:35.261Z,98614.50
2022-12-13T18:20:38.498Z,98647.72
2022-12-13T18:25:43.161Z,98642.22
2022-12-13T18:30:45.885Z,98634.94
2022-12-13T18:35:48.643Z,98621.25
2022-12-13T18:40:51.258Z,98615.44
2022-12-13T18:45:53.954Z,98614.84
2022-12-13T18:51:03.730Z,98603.88
2022-12-13T18:56:16.196Z,98597.09
2022-12-13T19:01:23.014Z,98601.53
2022-12-13T19:06:27.570Z,98600.63
2022-12-13T19:11:30.415Z,98570.66
2022-12-13T19:16:33.518Z,98575.00
2022-12-13T19:21:36.112Z,98563.06
2022-12-13T19:26:39.145Z,98563.63
2022-12-13T19:31:41.814Z,98559.03
2022-12-13T19:36:44.393Z,98547.78
2022-12-13T19:41:46.916Z,98533.91
2022-12-13T19:46:49.534Z,98526.34
2022-12-13T19:51:52.254Z,98518.22
2022-12-13T19:56:54.995Z,98494.19
2022-12-13T20:01:58.040Z,98504.81
2022-12-13T20:07:00.694Z,98506.44
2022-12-13T20:12:03.372Z,98511.44
2022-12-13T20:17:06.196Z,98505.75
2022-12-13T20:22:08.757Z,98497.19
2022-12-13T20:27:11.583Z,98465.75
2022-12-13T20:32:14.407Z,98469.25
2022-12-13T20:37:16.973Z,98446.91
2022-12-13T20:42:19.726Z,98453.13
2022-12-13T20:47:22.326Z,98446.72
2022-12-13T20:52:25.692Z,98437.41
2022-12-13T20:57:28.178Z,98455.25
2022-12-13T21:02:30.785Z,98453.44
2022-12-13T21:07:52.119Z,98442.28
2022-12-13T21:12:54.817Z,98435.25
2022-12-13T21:17:57.766Z,98433.50
2022-12-13T21:23:00.264Z,98448.69
2022-12-13T21:28:02.753Z,98417.09
2022-12-13T21:33:05.562Z,98420.59
2022-12-13T21:38:08.035Z,98405.41
2022-12-13T21:43:11.151Z,98409.50
2022-12-13T21:48:13.947Z,98407.22
2022-12-13T21:53:16.493Z,98393.97
2022-12-13T21:58:37.518Z,98397.97
2022-12-13T22:03:40.065Z,98381.19
2022-12-13T22:08:44.285Z,98378.81
2022-12-13T22:13:48.344Z,98379.03
2022-12-13T22:18:54.278Z,98342.06
2022-12-13T22:23:57.312Z,98362.78
2022-12-13T22:28:59.955Z,98355.88
2022-12-13T22:34:02.534Z,98363.31
2022-12-13T22:39:06.884Z,98314.22
2022-12-13T22:44:11.902Z,98342.28
2022-12-13T22:49:15.199Z,98348.19
2022-12-13T22:54:18.031Z,98318.38
2022-12-13T22:59:20.537Z,98326.88
2022-12-13T23:04:23.419Z,98315.56
2022-12-13T23:09:26.044Z,98298.22
2022-12-13T23:14:34.356Z,98297.41
2022-12-13T23:19:50.078Z,98254.97
2022-12-13T23:24:55.496Z,98266.06
2022-12-13T23:29:57.996Z,98271.94
2022-12-13T23:35:00.575Z,98258.34
2022-12-13T23:40:04.890Z,98250.16
2022-12-13T23:45:07.956Z,98237.13
2022-12-13T23:50:10.614Z,98225.75
2022-12-13T23:55:13.147Z,98216.25
